createdAt,value
2022-11-02T00:00:27.770Z,10.47
2022-11-02T00:02:56.624Z,10.48
2022-11-02T00:05:26.452Z,10.47
2022-11-02T00:07:54.847Z,10.49
2022-11-02T00:10:22.786Z,10.52
2022-11-02T00:12:50.688Z,10.52
2022-11-02T00:15:17.914Z,10.53
2022-11-02T00:17:48.924Z,10.54
2022-11-02T00:20:18.410Z,10.57
2022-11-02T00:22:48.119Z,10.59
2022-11-02T00:25:21.058Z,10.59
2022-11-02T00:27:50.478Z,10.60
2022-11-02T00:30:17.457Z,10.61
2022-11-02T00:32:48.673Z,10.58
2022-11-02T00:35:18.433Z,10.63
2022-11-02T00:37:45.429Z,10.63
2022-11-02T00:40:12.352Z,10.64
2022-11-02T00:42:38.900Z,10.66
2022-11-02T00:45:06.583Z,10.67
2022-11-02T00:47:36.275Z,10.67
2022-11-02T00:50:03.007Z,10.68
2022-11-02T00:52:30.347Z,10.68
2022-11-02T00:54:57.205Z,10.68
2022-11-02T00:57:24.031Z,10.69
2022-11-02T00:59:52.516Z,10.71
2022-11-02T01:02:21.590Z,10.72
2022-11-02T01:04:48.340Z,10.73
2022-11-02T01:07:15.123Z,10.74
2022-11-02T01:09:41.895Z,10.76
2022-11-02T01:12:08.464Z,10.77
2022-11-02T01:14:35.108Z,10.77
2022-11-02T01:17:02.091Z,10.77
2022-11-02T01:19:31.335Z,10.76
2022-11-02T01:21:57.977Z,10.78
2022-11-02T01:24:24.581Z,10.80
2022-11-02T01:26:52.524Z,10.80
2022-11-02T01:29:19.533Z,10.82
2022-11-02T01:31:46.172Z,10.81
2022-11-02T01:34:12.746Z,10.82
2022-11-02T01:36:40.407Z,10.84
2022-11-02T01:39:07.608Z,10.84
2022-11-02T01:41:35.728Z,10.83
2022-11-02T01:44:03.170Z,10.85
2022-11-02T01:46:42.586Z,10.84
2022-11-02T01:49:25.422Z,10.85
2022-11-02T01:52:03.094Z,10.85
2022-11-02T01:54:32.567Z,10.86
2022-11-02T01:57:04.790Z,10.87
2022-11-02T01:59:37.044Z,10.89
2022-11-02T02:02:09.322Z,10.90
2022-11-02T02:04:36.924Z,10.90
2022-11-02T02:07:04.216Z,10.91
2022-11-02T02:09:30.991Z,10.93
2022-11-02T02:11:57.569Z,10.94
2022-11-02T02:14:24.827Z,10.94
2022-11-02T02:17:12.439Z,10.96
2022-11-02T02:20:04.954Z,10.98
2022-11-02T02:22:43.445Z,10.99
2022-11-02T02:25:20.523Z,11.01
2022-11-02T02:28:08.937Z,11.02
2022-11-02T02:30:50.172Z,11.03
2022-11-02T02:33:38.672Z,11.05
2022-11-02T02:36:28.533Z,11.06
2022-11-02T02:39:17.960Z,11.05
2022-11-02T02:41:55.956Z,11.05
2022-11-02T02:44:26.491Z,11.07
2022-11-02T02:47:01.504Z,11.08
2022-11-02T02:49:39.329Z,11.07
2022-11-02T02:52:06.505Z,11.06
2022-11-02T02:54:46.703Z,11.07
2022-11-02T02:57:19.108Z,11.09
2022-11-02T02:59:48.758Z,11.10
2022-11-02T03:02:21.436Z,11.10
2022-11-02T03:04:48.157Z,11.11
2022-11-02T03:07:26.369Z,11.12
2022-11-02T03:10:22.192Z,11.12
2022-11-02T03:13:00.322Z,11.13
2022-11-02T03:16:03.117Z,11.13
2022-11-02T03:18:38.724Z,11.14
2022-11-02T03:21:05.346Z,11.13
2022-11-02T03:23:42.671Z,11.14
2022-11-02T03:26:13.286Z,11.14
2022-11-02T03:28:42.472Z,11.13
2022-11-02T03:31:32.669Z,11.15
2022-11-02T03:34:09.738Z,11.14
2022-11-02T03:36:56.500Z,11.15
2022-11-02T03:39:39.438Z,11.14
2022-11-02T03:42:09.395Z,11.13
2022-11-02T03:44:39.288Z,11.13
2022-11-02T03:47:09.914Z,11.13
2022-11-02T03:49:40.197Z,11.12
2022-11-02T03:52:10.519Z,11.10
2022-11-02T03:54:43.020Z,11.12
2022-11-02T03:57:16.811Z,11.12
2022-11-02T03:59:44.413Z,11.13
2022-11-02T04:02:12.724Z,11.14
2022-11-02T04:04:52.795Z,11.14
2022-11-02T04:07:28.307Z,11.13
2022-11-02T04:09:54.887Z,11.14
2022-11-02T04:12:39.837Z,11.16
2022-11-02T04:15:07.216Z,11.15
2022-11-02T04:17:52.248Z,11.15
2022-11-02T04:20:18.863Z,11.12
2022-11-02T04:23:03.763Z,11.13
2022-11-02T04:25:30.312Z,11.11
2022-11-02T04:28:06.579Z,11.11
2022-11-02T04:30:33.382Z,11.11
2022-11-02T04:33:18.281Z,11.09
2022-11-02T04:35:44.835Z,11.08
2022-11-02T04:38:30.024Z,11.05
2022-11-02T04:41:16.532Z,11.04
2022-11-02T04:43:44.441Z,11.01
2022-11-02T04:46:10.999Z,10.97
2022-11-02T04:48:37.610Z,10.95
2022-11-02T04:51:04.358Z,10.95
2022-11-02T04:53:30.947Z,10.96
2022-11-02T04:55:57.528Z,10.99
2022-11-02T04:58:24.072Z,11.00
2022-11-02T05:00:50.614Z,11.02
2022-11-02T05:03:17.243Z,11.01
2022-11-02T05:05:43.823Z,11.02
2022-11-02T05:08:10.509Z,11.01
2022-11-02T05:10:37.104Z,11.03
2022-11-02T05:13:03.685Z,11.02
2022-11-02T05:15:30.267Z,11.03
2022-11-02T05:17:56.908Z,11.01
2022-11-02T05:20:23.533Z,11.02
2022-11-02T05:22:50.167Z,11.03
2022-11-02T05:25:16.782Z,11.02
2022-11-02T05:27:43.339Z,11.04
2022-11-02T05:30:10.468Z,11.03
2022-11-02T05:32:37.107Z,11.01
2022-11-02T05:35:04.703Z,10.99
2022-11-02T05:37:31.255Z,10.98
2022-11-02T05:39:58.649Z,10.96
2022-11-02T05:42:25.856Z,10.98
2022-11-02T05:44:52.441Z,10.97
2022-11-02T05:47:19.026Z,10.95
2022-11-02T05:49:45.586Z,10.95
2022-11-02T05:52:12.180Z,10.94
2022-11-02T05:54:38.825Z,10.93
2022-11-02T05:57:05.406Z,10.93
2022-11-02T05:59:32.069Z,10.93
2022-11-02T06:01:58.693Z,10.91
2022-11-02T06:04:25.356Z,10.93
2022-11-02T06:06:51.916Z,10.90
2022-11-02T06:09:18.492Z,10.92
2022-11-02T06:11:45.150Z,10.92
2022-11-02T06:14:11.692Z,10.91
2022-11-02T06:16:38.253Z,10.92
2022-11-02T06:19:04.833Z,10.93
2022-11-02T06:21:31.458Z,10.91
2022-11-02T06:23:59.089Z,10.91
2022-11-02T06:26:25.870Z,10.91
2022-11-02T06:28:52.455Z,10.90
2022-11-02T06:31:19.052Z,10.89
2022-11-02T06:33:45.795Z,10.88
2022-11-02T06:36:12.568Z,10.86
2022-11-02T06:38:39.168Z,10.86
2022-11-02T06:41:06.858Z,10.88
2022-11-02T06:43:34.334Z,10.87
2022-11-02T06:46:00.917Z,10.87
2022-11-02T06:48:34.216Z,10.85
2022-11-02T06:51:02.253Z,10.86
2022-11-02T06:53:28.996Z,10.85
2022-11-02T06:55:57.374Z,10.86
2022-11-02T06:58:24.897Z,10.86
2022-11-02T07:00:57.692Z,10.86
2022-11-02T07:03:24.379Z,10.84
2022-11-02T07:05:54.403Z,10.85
2022-11-02T07:08:21.403Z,10.85
2022-11-02T07:10:48.199Z,10.86
2022-11-02T07:13:15.144Z,10.86
2022-11-02T07:15:41.957Z,10.84
2022-11-02T07:18:08.928Z,10.82
2022-11-02T07:20:35.936Z,10.81
2022-11-02T07:23:04.421Z,10.82
2022-11-02T07:25:33.402Z,10.81
2022-11-02T07:28:01.452Z,10.82
2022-11-02T07:30:29.915Z,10.82
2022-11-02T07:32:57.004Z,10.83
2022-11-02T07:35:23.711Z,10.86
2022-11-02T07:38:01.644Z,10.87
2022-11-02T07:40:30.290Z,10.87
2022-11-02T07:42:57.609Z,10.88
2022-11-02T07:45:24.734Z,10.88
2022-11-02T07:47:51.761Z,10.88
2022-11-02T07:50:21.310Z,10.89
2022-11-02T07:52:53.037Z,10.89
2022-11-02T07:55:22.302Z,10.88
2022-11-02T07:58:00.219Z,10.88
2022-11-02T08:00:37.841Z,10.88
2022-11-02T08:03:06.316Z,10.88
2022-11-02T08:05:38.868Z,10.89
2022-11-02T08:08:08.399Z,10.89
2022-11-02T08:10:37.290Z,10.90
2022-11-02T08:13:08.754Z,10.91
2022-11-02T08:15:35.378Z,10.93
2022-11-02T08:18:15.437Z,10.96
2022-11-02T08:20:42.926Z,10.97
2022-11-02T08:23:10.936Z,11.00
2022-11-02T08:25:40.621Z,11.05
2022-11-02T08:28:11.768Z,11.08
2022-11-02T08:30:38.908Z,11.10
2022-11-02T08:33:08.103Z,11.11
2022-11-02T08:35:36.444Z,11.12
2022-11-02T08:38:04.459Z,11.14
2022-11-02T08:40:31.570Z,11.17
2022-11-02T08:42:59.597Z,11.17
2022-11-02T08:45:27.528Z,11.21
2022-11-02T08:47:54.586Z,11.24
2022-11-02T08:50:22.345Z,11.27
2022-11-02T08:52:48.967Z,11.28
2022-11-02T08:55:15.735Z,11.29
2022-11-02T08:57:49.742Z,11.32
2022-11-02T09:00:18.729Z,11.31
2022-11-02T09:02:58.532Z,11.35
2022-11-02T09:05:25.277Z,11.37
2022-11-02T09:07:59.510Z,11.38
2022-11-02T09:10:28.231Z,11.39
2022-11-02T09:12:55.420Z,11.41
2022-11-02T09:15:22.388Z,11.43
2022-11-02T09:17:50.187Z,11.46
2022-11-02T09:20:17.847Z,11.50
2022-11-02T09:22:45.208Z,11.52
2022-11-02T09:25:13.466Z,11.54
2022-11-02T09:27:41.298Z,11.56
2022-11-02T09:30:09.414Z,11.58
2022-11-02T09:32:36.379Z,11.59
2022-11-02T09:35:11.353Z,11.62
2022-11-02T09:37:38.260Z,11.66
2022-11-02T09:40:06.163Z,11.64
2022-11-02T09:42:45.073Z,11.63
2022-11-02T09:45:16.445Z,11.62
2022-11-02T09:48:18.612Z,11.64
2022-11-02T09:50:47.490Z,11.68
2022-11-02T09:53:20.209Z,11.68
2022-11-02T09:55:53.640Z,11.69
2022-11-02T09:58:28.776Z,11.69
2022-11-02T10:01:01.913Z,11.73
2022-11-02T10:03:46.225Z,11.73
2022-11-02T10:06:17.494Z,11.75
2022-11-02T10:09:12.011Z,11.75
2022-11-02T10:12:06.351Z,11.76
2022-11-02T10:14:56.952Z,11.78
2022-11-02T10:17:27.581Z,11.79
2022-11-02T10:20:02.439Z,11.82
2022-11-02T10:22:34.626Z,11.84
2022-11-02T10:25:05.032Z,11.86
2022-11-02T10:27:38.048Z,11.89
2022-11-02T10:30:07.140Z,11.91
2022-11-02T10:32:36.530Z,11.94
2022-11-02T10:37:59.647Z,11.99
2022-11-02T10:40:52.062Z,12.01
2022-11-02T10:43:52.140Z,12.03
2022-11-02T10:46:31.504Z,12.06
2022-11-02T10:49:13.122Z,12.08
2022-11-02T10:51:39.811Z,12.12
2022-11-02T10:54:17.866Z,12.13
2022-11-02T10:56:49.467Z,12.14
2022-11-02T10:59:23.690Z,12.16
2022-11-02T11:01:56.494Z,12.15
2022-11-02T11:04:28.487Z,12.18
2022-11-02T11:06:56.751Z,12.18
2022-11-02T11:09:27.054Z,12.20
2022-11-02T11:12:14.013Z,12.22
2022-11-02T11:20:39.241Z,12.22
2022-11-02T11:23:17.015Z,12.23
2022-11-02T11:25:53.138Z,12.24
2022-11-02T11:28:47.535Z,12.25
2022-11-02T11:31:16.947Z,12.25
2022-11-02T11:33:47.441Z,12.26
2022-11-02T11:36:35.648Z,12.27
2022-11-02T11:39:07.128Z,12.26
2022-11-02T11:41:34.955Z,12.28
2022-11-02T11:44:03.362Z,12.31
2022-11-02T11:46:42.859Z,12.30
2022-11-02T11:50:09.482Z,12.31
2022-11-02T11:52:26.959Z,12.30
2022-11-02T11:54:59.701Z,12.32
2022-11-02T11:57:32.206Z,12.32
2022-11-02T12:00:04.948Z,12.35
2022-11-02T12:02:33.681Z,12.37
2022-11-02T12:05:18.524Z,12.38
2022-11-02T12:08:10.304Z,12.40
2022-11-02T12:10:50.455Z,12.41
2022-11-02T12:13:37.297Z,12.41
2022-11-02T12:16:35.623Z,12.42
2022-11-02T12:19:17.328Z,12.42
2022-11-02T12:22:17.360Z,12.43
2022-11-02T12:25:08.511Z,12.45
2022-11-02T12:28:09.186Z,12.45
2022-11-02T12:30:47.866Z,12.46
2022-11-02T12:33:31.955Z,12.46
2022-11-02T12:36:13.465Z,12.46
2022-11-02T12:38:57.747Z,12.50
2022-11-02T12:41:47.538Z,12.52
2022-11-02T12:44:17.120Z,12.52
2022-11-02T12:46:52.446Z,12.56
2022-11-02T12:49:49.472Z,12.60
2022-11-02T12:52:49.584Z,12.62
2022-11-02T12:55:20.845Z,12.62
2022-11-02T12:57:48.391Z,12.60
2022-11-02T13:00:22.520Z,12.60
2022-11-02T13:02:52.025Z,12.57
2022-11-02T13:05:27.080Z,12.55
2022-11-02T13:08:05.271Z,12.55
2022-11-02T13:10:41.040Z,12.53
2022-11-02T13:13:15.566Z,12.49
2022-11-02T13:15:45.356Z,12.48
2022-11-02T13:18:20.663Z,12.47
2022-11-02T13:20:55.072Z,12.42
2022-11-02T13:23:33.654Z,12.41
2022-11-02T13:26:11.355Z,12.38
2022-11-02T13:28:44.716Z,12.36
2022-11-02T13:31:37.692Z,12.34
2022-11-02T13:34:12.937Z,12.33
2022-11-02T13:36:40.196Z,12.35
2022-11-02T13:39:15.786Z,12.33
2022-11-02T13:41:54.189Z,12.33
2022-11-02T13:44:42.336Z,12.32
2022-11-02T13:47:18.130Z,12.29
2022-11-02T13:49:50.799Z,12.28
2022-11-02T13:52:40.103Z,12.25
2022-11-02T13:55:10.591Z,12.25
2022-11-02T13:57:43.011Z,12.24
2022-11-02T14:00:24.936Z,12.24
2022-11-02T14:03:12.857Z,12.23
2022-11-02T14:05:51.334Z,12.22
2022-11-02T14:08:34.832Z,12.20
2022-11-02T14:11:21.700Z,12.18
2022-11-02T14:13:54.406Z,12.17
2022-11-02T14:16:43.235Z,12.12
2022-11-02T14:19:53.441Z,12.09
2022-11-02T14:22:21.142Z,12.04
2022-11-02T14:24:49.412Z,12.00
2022-11-02T14:27:16.708Z,11.98
2022-11-02T14:29:45.776Z,11.91
2022-11-02T14:32:21.215Z,11.86
2022-11-02T14:35:04.417Z,11.81
2022-11-02T14:37:45.877Z,11.77
2022-11-02T14:40:40.692Z,11.71
2022-11-02T14:43:47.160Z,11.68
2022-11-02T14:46:56.909Z,11.61
2022-11-02T14:49:47.924Z,11.56
2022-11-02T14:52:14.460Z,11.52
2022-11-02T14:55:19.223Z,11.49
2022-11-02T14:57:55.504Z,11.44
2022-11-02T15:00:26.117Z,11.41
2022-11-02T15:02:53.734Z,11.38
2022-11-02T15:05:26.305Z,11.37
2022-11-02T15:07:59.776Z,11.34
2022-11-02T15:10:32.491Z,11.36
2022-11-02T15:13:20.589Z,11.37
2022-11-02T15:15:50.209Z,11.34
2022-11-02T15:18:37.236Z,11.33
2022-11-02T15:21:17.798Z,11.32
2022-11-02T15:23:50.789Z,11.31
2022-11-02T15:26:29.869Z,11.31
2022-11-02T15:29:00.727Z,11.30
2022-11-02T15:31:28.948Z,11.31
2022-11-02T15:33:59.387Z,11.30
2022-11-02T15:36:36.407Z,11.29
2022-11-02T15:39:08.257Z,11.30
2022-11-02T15:41:34.812Z,11.30
2022-11-02T15:44:04.245Z,11.30
2022-11-02T15:46:42.326Z,11.29
2022-11-02T15:49:47.507Z,11.30
2022-11-02T15:52:23.126Z,11.29
2022-11-02T15:55:01.752Z,11.31
2022-11-02T15:57:31.133Z,11.31
2022-11-02T16:00:13.044Z,11.28
2022-11-02T16:03:04.527Z,11.30
2022-11-02T16:05:43.251Z,11.30
2022-11-02T16:08:24.521Z,11.29
2022-11-02T16:11:04.037Z,11.28
2022-11-02T16:13:48.789Z,11.26
2022-11-02T16:16:21.515Z,11.25
2022-11-02T16:18:55.060Z,11.25
2022-11-02T16:21:21.863Z,11.25
2022-11-02T16:23:51.204Z,11.25
2022-11-02T16:26:24.021Z,11.25
2022-11-02T16:28:58.482Z,11.25
2022-11-02T16:31:33.135Z,11.24
2022-11-02T16:34:22.151Z,11.23
2022-11-02T16:36:49.131Z,11.22
2022-11-02T16:39:20.921Z,11.20
2022-11-02T16:41:50.719Z,11.20
2022-11-02T16:44:30.078Z,11.18
2022-11-02T16:47:07.554Z,11.18
2022-11-02T16:49:55.332Z,11.15
2022-11-02T16:52:32.263Z,11.15
2022-11-02T16:54:59.338Z,11.15
2022-11-02T16:57:44.074Z,11.11
2022-11-02T17:00:19.153Z,11.12
2022-11-02T17:02:46.448Z,11.10
2022-11-02T17:05:15.844Z,11.10
2022-11-02T17:07:47.188Z,11.11
2022-11-02T17:10:23.973Z,11.09
2022-11-02T17:12:51.010Z,11.07
2022-11-02T17:15:23.405Z,11.09
2022-11-02T17:17:50.682Z,11.09
2022-11-02T17:20:22.865Z,11.11
2022-11-02T17:22:51.131Z,11.13
2022-11-02T17:25:27.917Z,11.15
2022-11-02T17:27:57.200Z,11.15
2022-11-02T17:30:29.888Z,11.15
2022-11-02T17:32:57.800Z,11.18
2022-11-02T17:35:27.293Z,11.20
2022-11-02T17:37:54.394Z,11.20
2022-11-02T17:40:22.092Z,11.21
2022-11-02T17:43:01.056Z,11.23
2022-11-02T17:45:38.536Z,11.25
2022-11-02T17:48:07.288Z,11.26
2022-11-02T17:50:36.221Z,11.28
2022-11-02T17:53:04.287Z,11.29
2022-11-02T17:55:33.195Z,11.29
2022-11-02T17:58:00.511Z,11.30
2022-11-02T18:00:28.637Z,11.30
2022-11-02T18:02:57.753Z,11.31
2022-11-02T18:05:24.354Z,11.32
2022-11-02T18:07:51.030Z,11.32
2022-11-02T18:10:19.254Z,11.34
2022-11-02T18:12:45.876Z,11.35
2022-11-02T18:15:16.608Z,11.33
2022-11-02T18:17:43.556Z,11.35
2022-11-02T18:20:11.573Z,11.34
2022-11-02T18:22:38.583Z,11.32
2022-11-02T18:25:13.236Z,11.31
2022-11-02T18:27:40.814Z,11.32
2022-11-02T18:30:11.652Z,11.30
2022-11-02T18:32:39.782Z,11.30
2022-11-02T18:35:10.242Z,11.30
2022-11-02T18:37:38.429Z,11.29
2022-11-02T18:40:09.812Z,11.30
2022-11-02T18:42:36.647Z,11.28
2022-11-02T18:45:03.641Z,11.26
2022-11-02T18:47:30.271Z,11.25
2022-11-02T18:49:56.903Z,11.25
2022-11-02T18:52:25.927Z,11.23
2022-11-02T18:54:53.620Z,11.20
2022-11-02T18:57:24.154Z,11.20
2022-11-02T18:59:53.639Z,11.20
2022-11-02T19:02:20.424Z,11.19
2022-11-02T19:04:47.218Z,11.17
2022-11-02T19:07:32.436Z,11.16
2022-11-02T19:10:03.281Z,11.15
2022-11-02T19:12:30.861Z,11.12
2022-11-02T19:14:57.716Z,11.10
2022-11-02T19:17:25.835Z,11.10
2022-11-02T19:19:52.863Z,11.10
2022-11-02T19:22:22.061Z,11.10
2022-11-02T19:24:49.324Z,11.10
2022-11-02T19:27:21.365Z,11.10
2022-11-02T19:29:48.075Z,11.08
2022-11-02T19:32:15.253Z,11.07
2022-11-02T19:34:42.056Z,11.07
2022-11-02T19:37:09.439Z,11.04
2022-11-02T19:39:36.258Z,11.02
2022-11-02T19:42:03.574Z,11.02
2022-11-02T19:44:30.699Z,11.02
2022-11-02T19:46:57.269Z,10.99
2022-11-02T19:49:23.951Z,10.99
2022-11-02T19:51:50.669Z,10.98
2022-11-02T19:54:17.333Z,11.00
2022-11-02T19:56:43.968Z,11.00
2022-11-02T19:59:10.623Z,10.98
2022-11-02T20:01:40.016Z,10.98
2022-11-02T20:04:06.854Z,10.98
2022-11-02T20:06:40.558Z,10.95
2022-11-02T20:09:13.328Z,10.93
2022-11-02T20:11:44.471Z,10.91
2022-11-02T20:14:12.817Z,10.93
2022-11-02T20:16:39.675Z,10.90
2022-11-02T20:19:06.694Z,10.90
2022-11-02T20:21:38.218Z,10.89
2022-11-02T20:24:09.777Z,10.84
2022-11-02T20:26:37.867Z,10.83
2022-11-02T20:29:06.389Z,10.81
2022-11-02T20:31:39.176Z,10.82
2022-11-02T20:34:08.296Z,10.82
2022-11-02T20:36:35.215Z,10.81
2022-11-02T20:39:04.778Z,10.79
2022-11-02T20:41:31.914Z,10.79
2022-11-02T20:43:58.631Z,10.77
2022-11-02T20:46:45.294Z,10.72
2022-11-02T20:49:22.105Z,10.69
2022-11-02T20:52:01.120Z,10.66
2022-11-02T20:54:29.874Z,10.65
2022-11-02T20:56:56.987Z,10.65
2022-11-02T20:59:23.644Z,10.61
2022-11-02T21:01:50.531Z,10.59
2022-11-02T21:04:20.873Z,10.57
2022-11-02T21:06:49.146Z,10.54
2022-11-02T21:09:15.986Z,10.53
2022-11-02T21:12:01.394Z,10.50
2022-11-02T21:14:28.066Z,10.46
2022-11-02T21:16:55.462Z,10.41
2022-11-02T21:19:22.175Z,10.37
2022-11-02T21:21:48.729Z,10.37
2022-11-02T21:24:15.332Z,10.36
2022-11-02T21:26:42.100Z,10.36
2022-11-02T21:29:09.511Z,10.37
2022-11-02T21:31:36.335Z,10.37
2022-11-02T21:34:02.959Z,10.36
2022-11-02T21:36:30.088Z,10.36
2022-11-02T21:38:57.068Z,10.34
2022-11-02T21:41:29.003Z,10.32
2022-11-02T21:43:56.400Z,10.26
2022-11-02T21:46:25.822Z,10.21
2022-11-02T21:48:52.954Z,10.16
2022-11-02T21:51:22.130Z,10.12
2022-11-02T21:53:50.219Z,10.11
2022-11-02T21:56:19.740Z,10.08
2022-11-02T21:58:48.820Z,10.07
2022-11-02T22:01:37.319Z,10.04
2022-11-02T22:04:04.805Z,10.02
2022-11-02T22:06:32.154Z,10.01
2022-11-02T22:08:59.528Z,9.99
2022-11-02T22:11:29.650Z,9.97
2022-11-02T22:13:58.736Z,9.94
2022-11-02T22:16:34.741Z,9.91
2022-11-02T22:19:05.848Z,9.87
2022-11-02T22:21:34.772Z,9.83
2022-11-02T22:24:02.583Z,9.80
2022-11-02T22:26:30.765Z,9.81
2022-11-02T22:28:58.120Z,9.80
2022-11-02T22:31:36.262Z,9.80
2022-11-02T22:34:05.121Z,9.81
2022-11-02T22:36:34.584Z,9.80
2022-11-02T22:39:03.149Z,9.82
2022-11-02T22:41:38.412Z,9.81
2022-11-02T22:44:07.655Z,9.82
2022-11-02T22:46:36.581Z,9.82
2022-11-02T22:49:04.737Z,9.82
2022-11-02T22:51:35.067Z,9.77
2022-11-02T22:54:04.150Z,9.73
2022-11-02T22:56:31.519Z,9.70
2022-11-02T22:58:59.171Z,9.69
2022-11-02T23:01:28.123Z,9.68
2022-11-02T23:03:55.621Z,9.67
2022-11-02T23:06:26.176Z,9.64
2022-11-02T23:08:57.055Z,9.63
2022-11-02T23:11:27.075Z,9.62
2022-11-02T23:14:01.884Z,9.61
2022-11-02T23:16:37.277Z,9.58
2022-11-02T23:19:28.547Z,9.54
2022-11-02T23:22:30.814Z,9.52
2022-11-02T23:25:11.850Z,9.49
2022-11-02T23:28:08.335Z,9.47
2022-11-02T23:30:55.932Z,9.45
2022-11-02T23:33:32.325Z,9.43
2022-11-02T23:36:15.598Z,9.38
2022-11-02T23:39:03.043Z,9.32
2022-11-02T23:41:32.085Z,9.23
2022-11-02T23:44:12.004Z,9.19
2022-11-02T23:46:46.950Z,9.13
2022-11-02T23:49:16.383Z,9.08
2022-11-02T23:52:02.039Z,9.01
2022-11-02T23:54:47.013Z,8.97
2022-11-02T23:57:13.855Z,8.91
2022-11-02T23:59:40.662Z,8.87
